AEE287 LGKR-LGAV
Flight info
| Callsign | AEE287 |
|---|---|
| Flight time | 0h 42m |
| Altitude | 31000 |
| Route | MALED UM127 ARA UY144 NEMES |
| Aircraft | A320/M-SDE3FGHIRWY/LB1 |
Departure
| Time | 2026-05-05 17:55 |
|---|---|
| Airport | Corfu Ioannis Kapodistrias International Airport (LGKR) |
Arrival
| Time | 2026-05-05 18:37 |
|---|---|
| Airport | Athens Eleftherios Venizelos International Airport (LGAV) |
| Time | Latitude | Longitude | Altitude | Speed | Heading |
|---|---|---|---|---|---|
| 2026-05-05 17:30 | 39.60879 | 19.91306 | 19 ft | 0 kts | 79° |
| 2026-05-05 17:45 | 39.60873 | 19.91280 | 19 ft | 4 kts | 57° |
| 2026-05-05 17:45 | 39.60855 | 19.91260 | 20 ft | 4 kts | 8° |
| 2026-05-05 17:45 | 39.60829 | 19.91262 | 18 ft | 4 kts | 346° |
| 2026-05-05 17:45 | 39.60811 | 19.91267 | 21 ft | 0 kts | 349° |
| 2026-05-05 17:50 | 39.60812 | 19.91267 | 21 ft | 1 kts | 349° |
| 2026-05-05 17:50 | 39.60854 | 19.91255 | 19 ft | 9 kts | 341° |
| 2026-05-05 17:50 | 39.60909 | 19.91192 | 20 ft | 12 kts | 310° |
| 2026-05-05 17:51 | 39.60989 | 19.91141 | 19 ft | 15 kts | 349° |
| 2026-05-05 17:51 | 39.61100 | 19.91114 | 21 ft | 18 kts | 348° |
| 2026-05-05 17:51 | 39.61172 | 19.91095 | 19 ft | 1 kts | 349° |
| 2026-05-05 17:51 | 39.61173 | 19.91094 | 19 ft | 0 kts | 349° |
| 2026-05-05 17:52 | 39.61181 | 19.91092 | 19 ft | 5 kts | 348° |
| 2026-05-05 17:52 | 39.61227 | 19.91030 | 21 ft | 13 kts | 298° |
| 2026-05-05 17:53 | 39.61220 | 19.90947 | 22 ft | 6 kts | 194° |
| 2026-05-05 17:53 | 39.61208 | 19.90949 | 21 ft | 0 kts | 169° |
| 2026-05-05 17:54 | 39.61205 | 19.90950 | 21 ft | 3 kts | 169° |
| 2026-05-05 17:54 | 39.60969 | 19.91011 | 19 ft | 74 kts | 169° |
| 2026-05-05 17:55 | 39.60240 | 19.91201 | 23 ft | 135 kts | 168° |
| 2026-05-05 17:55 | 39.59207 | 19.91466 | 375 ft | 155 kts | 170° |
| 2026-05-05 17:55 | 39.58234 | 19.91999 | 1128 ft | 154 kts | 135° |
| 2026-05-05 17:55 | 39.57565 | 19.93093 | 1791 ft | 156 kts | 136° |
| 2026-05-05 17:56 | 39.56749 | 19.94052 | 2326 ft | 162 kts | 142° |
| 2026-05-05 17:56 | 39.55853 | 19.95009 | 2849 ft | 172 kts | 143° |
| 2026-05-05 17:56 | 39.54878 | 19.96020 | 3307 ft | 187 kts | 143° |
| 2026-05-05 17:56 | 39.53819 | 19.97119 | 3736 ft | 205 kts | 142° |
| 2026-05-05 17:57 | 39.52657 | 19.98350 | 4147 ft | 224 kts | 142° |
| 2026-05-05 17:57 | 39.51443 | 19.99650 | 4944 ft | 229 kts | 142° |
| 2026-05-05 17:57 | 39.50213 | 20.00978 | 5859 ft | 231 kts | 141° |
| 2026-05-05 17:57 | 39.48992 | 20.02295 | 6782 ft | 232 kts | 140° |
| 2026-05-05 17:58 | 39.47742 | 20.03639 | 7644 ft | 236 kts | 140° |
| 2026-05-05 17:58 | 39.46454 | 20.05029 | 8490 ft | 241 kts | 140° |
| 2026-05-05 17:58 | 39.45157 | 20.06430 | 9352 ft | 245 kts | 140° |
| 2026-05-05 17:58 | 39.43830 | 20.07858 | 10114 ft | 256 kts | 141° |
| 2026-05-05 17:59 | 39.42381 | 20.09378 | 10502 ft | 280 kts | 141° |
| 2026-05-05 17:59 | 39.40794 | 20.11018 | 10865 ft | 304 kts | 141° |
| 2026-05-05 17:59 | 39.39077 | 20.12785 | 11184 ft | 327 kts | 141° |
| 2026-05-05 17:59 | 39.37284 | 20.14632 | 11756 ft | 339 kts | 141° |
| 2026-05-05 18:00 | 39.35424 | 20.16553 | 12497 ft | 345 kts | 141° |
| 2026-05-05 18:00 | 39.33533 | 20.18508 | 13284 ft | 350 kts | 141° |
| 2026-05-05 18:00 | 39.31620 | 20.20484 | 14037 ft | 355 kts | 141° |
| 2026-05-05 18:00 | 39.29678 | 20.22494 | 14698 ft | 360 kts | 141° |
| 2026-05-05 18:01 | 39.27706 | 20.24531 | 15338 ft | 365 kts | 141° |
| 2026-05-05 18:01 | 39.25707 | 20.26592 | 15973 ft | 371 kts | 141° |
| 2026-05-05 18:01 | 39.23677 | 20.28686 | 16603 ft | 376 kts | 141° |
| 2026-05-05 18:01 | 39.21626 | 20.30806 | 17233 ft | 381 kts | 142° |
| 2026-05-05 18:02 | 39.19543 | 20.32953 | 17874 ft | 386 kts | 142° |
| 2026-05-05 18:02 | 39.17431 | 20.35124 | 18499 ft | 391 kts | 142° |
| 2026-05-05 18:02 | 39.15292 | 20.37320 | 19037 ft | 396 kts | 142° |
| 2026-05-05 18:02 | 39.13117 | 20.39548 | 19608 ft | 401 kts | 142° |
| 2026-05-05 18:03 | 39.10892 | 20.41826 | 20176 ft | 406 kts | 142° |
| 2026-05-05 18:03 | 39.08697 | 20.44078 | 20723 ft | 411 kts | 142° |
| 2026-05-05 18:03 | 39.06455 | 20.46388 | 21258 ft | 415 kts | 142° |
| 2026-05-05 18:03 | 39.04178 | 20.48723 | 21774 ft | 421 kts | 142° |
| 2026-05-05 18:04 | 39.01837 | 20.51089 | 22264 ft | 426 kts | 143° |
| 2026-05-05 18:04 | 38.99514 | 20.53411 | 22747 ft | 431 kts | 143° |
| 2026-05-05 18:04 | 38.97142 | 20.55801 | 23233 ft | 435 kts | 139° |
| 2026-05-05 18:04 | 38.95090 | 20.58685 | 23727 ft | 440 kts | 127° |
| 2026-05-05 18:05 | 38.93190 | 20.61798 | 24156 ft | 444 kts | 127° |
| 2026-05-05 18:05 | 38.91287 | 20.64940 | 24580 ft | 447 kts | 127° |
| 2026-05-05 18:05 | 38.89376 | 20.68110 | 25022 ft | 451 kts | 127° |
| 2026-05-05 18:05 | 38.87457 | 20.71298 | 25462 ft | 454 kts | 127° |
| 2026-05-05 18:06 | 38.85519 | 20.74510 | 25905 ft | 457 kts | 127° |
| 2026-05-05 18:06 | 38.84197 | 20.76688 | 26207 ft | 459 kts | 127° |
| 2026-05-05 18:06 | 38.81573 | 20.80981 | 26814 ft | 463 kts | 128° |
| 2026-05-05 18:06 | 38.79572 | 20.84248 | 27203 ft | 467 kts | 127° |
| 2026-05-05 18:07 | 38.77560 | 20.87534 | 27592 ft | 471 kts | 127° |
| 2026-05-05 18:07 | 38.75524 | 20.90861 | 28007 ft | 475 kts | 127° |
| 2026-05-05 18:07 | 38.73482 | 20.94197 | 28439 ft | 478 kts | 127° |
| 2026-05-05 18:07 | 38.71422 | 20.97561 | 28843 ft | 482 kts | 127° |
| 2026-05-05 18:08 | 38.69346 | 21.00954 | 29251 ft | 485 kts | 127° |
| 2026-05-05 18:08 | 38.67261 | 21.04364 | 29667 ft | 489 kts | 127° |
| 2026-05-05 18:08 | 38.65157 | 21.07797 | 30099 ft | 492 kts | 127° |
| 2026-05-05 18:08 | 38.63030 | 21.11255 | 30442 ft | 495 kts | 127° |
| 2026-05-05 18:09 | 38.60896 | 21.14719 | 30801 ft | 498 kts | 127° |
| 2026-05-05 18:09 | 38.58751 | 21.18200 | 31058 ft | 500 kts | 127° |
| 2026-05-05 18:09 | 38.56628 | 21.21641 | 31129 ft | 491 kts | 127° |
| 2026-05-05 18:09 | 38.54520 | 21.25051 | 31124 ft | 475 kts | 127° |
| 2026-05-05 18:10 | 38.52490 | 21.28337 | 31122 ft | 469 kts | 127° |
| 2026-05-05 18:10 | 38.48457 | 21.34851 | 31125 ft | 467 kts | 127° |
| 2026-05-05 18:11 | 38.44458 | 21.41300 | 31130 ft | 466 kts | 127° |
| 2026-05-05 18:11 | 38.40432 | 21.47791 | 31118 ft | 466 kts | 127° |
| 2026-05-05 18:12 | 38.36369 | 21.54311 | 31128 ft | 466 kts | 127° |
| 2026-05-05 18:12 | 38.32328 | 21.60779 | 31136 ft | 467 kts | 127° |
| 2026-05-05 18:13 | 38.28284 | 21.67245 | 31139 ft | 467 kts | 127° |
| 2026-05-05 18:13 | 38.24259 | 21.73668 | 31141 ft | 467 kts | 127° |
| 2026-05-05 18:14 | 38.20213 | 21.80119 | 31163 ft | 467 kts | 127° |
| 2026-05-05 18:14 | 38.16160 | 21.86571 | 31111 ft | 466 kts | 127° |
| 2026-05-05 18:14 | 38.14142 | 21.89765 | 30865 ft | 461 kts | 127° |
| 2026-05-05 18:15 | 38.12141 | 21.92928 | 30609 ft | 458 kts | 127° |
| 2026-05-05 18:15 | 38.10142 | 21.96093 | 29704 ft | 465 kts | 127° |
| 2026-05-05 18:15 | 38.08090 | 21.99346 | 28455 ft | 479 kts | 128° |
| 2026-05-05 18:15 | 38.06020 | 22.02627 | 28050 ft | 471 kts | 128° |
| 2026-05-05 18:16 | 38.03987 | 22.05840 | 27650 ft | 464 kts | 128° |
| 2026-05-05 18:16 | 38.01977 | 22.09013 | 27165 ft | 459 kts | 128° |
| 2026-05-05 18:16 | 37.99984 | 22.12152 | 26709 ft | 455 kts | 128° |
| 2026-05-05 18:16 | 37.98019 | 22.15248 | 25926 ft | 447 kts | 128° |
| 2026-05-05 18:17 | 37.96082 | 22.18304 | 25121 ft | 442 kts | 128° |
| 2026-05-05 18:17 | 37.94172 | 22.21316 | 24335 ft | 435 kts | 128° |
| 2026-05-05 18:17 | 37.92291 | 22.24279 | 23540 ft | 429 kts | 129° |
| 2026-05-05 18:17 | 37.90433 | 22.27194 | 22688 ft | 421 kts | 129° |
| 2026-05-05 18:18 | 37.88610 | 22.30047 | 22172 ft | 410 kts | 129° |
| 2026-05-05 18:18 | 37.86836 | 22.32820 | 21678 ft | 400 kts | 128° |
| 2026-05-05 18:18 | 37.85103 | 22.35529 | 21184 ft | 393 kts | 128° |
| 2026-05-05 18:18 | 37.83399 | 22.38193 | 20719 ft | 385 kts | 128° |
| 2026-05-05 18:19 | 37.81733 | 22.40798 | 20262 ft | 379 kts | 128° |
| 2026-05-05 18:19 | 37.80087 | 22.43370 | 19808 ft | 373 kts | 128° |
| 2026-05-05 18:19 | 37.78470 | 22.45892 | 19350 ft | 365 kts | 128° |
| 2026-05-05 18:19 | 37.76879 | 22.48363 | 18897 ft | 360 kts | 128° |
| 2026-05-05 18:20 | 37.75308 | 22.50804 | 18446 ft | 355 kts | 127° |
| 2026-05-05 18:20 | 37.73766 | 22.53203 | 17973 ft | 349 kts | 127° |
| 2026-05-05 18:20 | 37.72250 | 22.55561 | 17546 ft | 344 kts | 127° |
| 2026-05-05 18:20 | 37.70826 | 22.57938 | 17166 ft | 334 kts | 119° |
| 2026-05-05 18:21 | 37.69758 | 22.60583 | 17086 ft | 344 kts | 110° |
| 2026-05-05 18:21 | 37.68780 | 22.63376 | 17096 ft | 349 kts | 111° |
| 2026-05-05 18:21 | 37.67781 | 22.66179 | 17104 ft | 351 kts | 111° |
| 2026-05-05 18:21 | 37.66772 | 22.68987 | 17099 ft | 351 kts | 111° |
| 2026-05-05 18:22 | 37.65760 | 22.71792 | 17087 ft | 352 kts | 111° |
| 2026-05-05 18:22 | 37.64756 | 22.74599 | 16850 ft | 348 kts | 109° |
| 2026-05-05 18:22 | 37.64179 | 22.77506 | 16483 ft | 338 kts | 90° |
| 2026-05-05 18:22 | 37.64347 | 22.80410 | 16173 ft | 327 kts | 74° |
| 2026-05-05 18:23 | 37.64770 | 22.83232 | 15925 ft | 327 kts | 75° |
| 2026-05-05 18:23 | 37.65183 | 22.86052 | 15669 ft | 326 kts | 75° |
| 2026-05-05 18:23 | 37.65586 | 22.88845 | 15410 ft | 322 kts | 75° |
| 2026-05-05 18:23 | 37.65989 | 22.91622 | 15038 ft | 321 kts | 75° |
| 2026-05-05 18:24 | 37.66394 | 22.94397 | 14651 ft | 321 kts | 75° |
| 2026-05-05 18:24 | 37.66799 | 22.97172 | 14253 ft | 322 kts | 76° |
| 2026-05-05 18:24 | 37.67201 | 22.99952 | 13836 ft | 322 kts | 76° |
| 2026-05-05 18:24 | 37.67602 | 23.02731 | 13418 ft | 321 kts | 76° |
| 2026-05-05 18:25 | 37.68000 | 23.05497 | 13021 ft | 319 kts | 76° |
| 2026-05-05 18:25 | 37.68262 | 23.07315 | 12762 ft | 318 kts | 76° |
| 2026-05-05 18:25 | 37.68791 | 23.10983 | 12236 ft | 316 kts | 76° |
| 2026-05-05 18:25 | 37.69183 | 23.13704 | 11839 ft | 314 kts | 76° |
| 2026-05-05 18:26 | 37.69574 | 23.16405 | 11460 ft | 311 kts | 76° |
| 2026-05-05 18:26 | 37.69961 | 23.19086 | 11065 ft | 309 kts | 76° |
| 2026-05-05 18:26 | 37.70342 | 23.21750 | 10679 ft | 308 kts | 76° |
| 2026-05-05 18:26 | 37.70718 | 23.24401 | 10309 ft | 306 kts | 76° |
| 2026-05-05 18:27 | 37.71084 | 23.27000 | 10184 ft | 295 kts | 76° |
| 2026-05-05 18:27 | 37.71438 | 23.29522 | 9731 ft | 291 kts | 76° |
| 2026-05-05 18:27 | 37.71794 | 23.32024 | 9150 ft | 287 kts | 77° |
| 2026-05-05 18:27 | 37.72142 | 23.34476 | 8722 ft | 283 kts | 77° |
| 2026-05-05 18:28 | 37.72834 | 23.39328 | 8001 ft | 282 kts | 77° |
| 2026-05-05 18:28 | 37.73181 | 23.41765 | 7645 ft | 281 kts | 77° |
| 2026-05-05 18:28 | 37.73527 | 23.44192 | 7292 ft | 281 kts | 77° |
| 2026-05-05 18:29 | 37.73868 | 23.46593 | 6936 ft | 272 kts | 77° |
| 2026-05-05 18:29 | 37.74188 | 23.48883 | 6680 ft | 258 kts | 77° |
| 2026-05-05 18:29 | 37.74490 | 23.51063 | 6435 ft | 246 kts | 77° |
| 2026-05-05 18:29 | 37.74780 | 23.53163 | 6184 ft | 241 kts | 77° |
| 2026-05-05 18:30 | 37.75069 | 23.55240 | 5923 ft | 240 kts | 77° |
| 2026-05-05 18:30 | 37.75360 | 23.57311 | 5639 ft | 240 kts | 77° |
| 2026-05-05 18:30 | 37.75649 | 23.59381 | 5341 ft | 238 kts | 77° |
| 2026-05-05 18:30 | 37.75933 | 23.61431 | 5039 ft | 236 kts | 78° |
| 2026-05-05 18:31 | 37.76217 | 23.63473 | 4761 ft | 234 kts | 78° |
| 2026-05-05 18:31 | 37.76497 | 23.65484 | 4505 ft | 231 kts | 78° |
| 2026-05-05 18:31 | 37.76772 | 23.67471 | 4244 ft | 227 kts | 78° |
| 2026-05-05 18:31 | 37.77021 | 23.69272 | 4117 ft | 220 kts | 78° |
| 2026-05-05 18:32 | 37.77277 | 23.71134 | 3975 ft | 212 kts | 78° |
| 2026-05-05 18:32 | 37.77499 | 23.72746 | 3826 ft | 207 kts | 77° |
| 2026-05-05 18:32 | 37.77742 | 23.74510 | 3692 ft | 201 kts | 78° |
| 2026-05-05 18:32 | 37.77981 | 23.76244 | 3565 ft | 199 kts | 78° |
| 2026-05-05 18:33 | 37.78284 | 23.77942 | 3450 ft | 196 kts | 65° |
| 2026-05-05 18:33 | 37.78999 | 23.79355 | 3336 ft | 189 kts | 42° |
| 2026-05-05 18:33 | 37.80023 | 23.80392 | 3219 ft | 189 kts | 35° |
| 2026-05-05 18:33 | 37.81076 | 23.81386 | 3011 ft | 189 kts | 35° |
| 2026-05-05 18:34 | 37.81785 | 23.82057 | 2853 ft | 189 kts | 35° |
| 2026-05-05 18:34 | 37.82819 | 23.83036 | 2633 ft | 181 kts | 36° |
| 2026-05-05 18:34 | 37.83799 | 23.83965 | 2377 ft | 172 kts | 36° |
| 2026-05-05 18:34 | 37.84751 | 23.84866 | 2152 ft | 170 kts | 36° |
| 2026-05-05 18:35 | 37.85696 | 23.85762 | 1927 ft | 169 kts | 36° |
| 2026-05-05 18:35 | 37.86624 | 23.86641 | 1722 ft | 168 kts | 36° |
| 2026-05-05 18:35 | 37.87523 | 23.87494 | 1479 ft | 155 kts | 36° |
| 2026-05-05 18:35 | 37.88360 | 23.88288 | 1288 ft | 147 kts | 36° |
| 2026-05-05 18:36 | 37.89163 | 23.89050 | 1091 ft | 143 kts | 36° |
| 2026-05-05 18:36 | 37.89948 | 23.89795 | 900 ft | 140 kts | 36° |
| 2026-05-05 18:36 | 37.90714 | 23.90536 | 738 ft | 138 kts | 37° |
| 2026-05-05 18:36 | 37.91474 | 23.91272 | 563 ft | 137 kts | 35° |
| 2026-05-05 18:37 | 37.92235 | 23.91975 | 362 ft | 135 kts | 36° |
| 2026-05-05 18:37 | 37.92959 | 23.92658 | 298 ft | 114 kts | 37° |
| 2026-05-05 18:37 | 37.93450 | 23.93126 | 293 ft | 58 kts | 37° |
| 2026-05-05 18:37 | 37.93599 | 23.93366 | 293 ft | 26 kts | 65° |
| 2026-05-05 18:38 | 37.93637 | 23.93474 | 297 ft | 6 kts | 66° |
| 2026-05-05 18:38 | 37.93656 | 23.93528 | 298 ft | 7 kts | 67° |
| 2026-05-05 18:38 | 37.93675 | 23.93596 | 301 ft | 9 kts | 71° |
| 2026-05-05 18:38 | 37.93714 | 23.93666 | 303 ft | 11 kts | 31° |
| 2026-05-05 18:39 | 37.93787 | 23.93726 | 302 ft | 14 kts | 36° |
| 2026-05-05 18:39 | 37.93868 | 23.93802 | 301 ft | 15 kts | 36° |
| 2026-05-05 18:39 | 37.93955 | 23.93884 | 301 ft | 16 kts | 38° |
| 2026-05-05 18:39 | 37.94053 | 23.93978 | 300 ft | 19 kts | 37° |
| 2026-05-05 18:40 | 37.94169 | 23.94088 | 301 ft | 22 kts | 37° |
| 2026-05-05 18:40 | 37.94303 | 23.94215 | 302 ft | 25 kts | 37° |
| 2026-05-05 18:40 | 37.94445 | 23.94349 | 303 ft | 26 kts | 37° |
| 2026-05-05 18:40 | 37.94595 | 23.94492 | 304 ft | 26 kts | 37° |
| 2026-05-05 18:41 | 37.94687 | 23.94604 | 303 ft | 17 kts | 89° |
| 2026-05-05 18:41 | 37.94617 | 23.94738 | 301 ft | 20 kts | 127° |
| 2026-05-05 18:41 | 37.94526 | 23.94893 | 301 ft | 23 kts | 127° |
| 2026-05-05 18:41 | 37.94428 | 23.95060 | 301 ft | 25 kts | 127° |
| 2026-05-05 18:42 | 37.94341 | 23.95203 | 303 ft | 16 kts | 128° |
| 2026-05-05 18:42 | 37.94280 | 23.95284 | 301 ft | 10 kts | 172° |
| 2026-05-05 18:42 | 37.94227 | 23.95240 | 302 ft | 9 kts | 217° |
| 2026-05-05 18:42 | 37.94210 | 23.95223 | 302 ft | 0 kts | 217° |